createdAt,value
2018-12-14T00:00:00.914Z,-2.00
2018-12-14T00:05:04.391Z,-2.10
2018-12-14T00:10:08.543Z,-2.10
2018-12-14T00:15:11.925Z,-2.10
2018-12-14T00:25:18.395Z,-2.20
2018-12-14T00:30:21.761Z,-2.20
2018-12-14T00:35:25.047Z,-2.30
2018-12-14T00:40:28.387Z,-2.20
2018-12-14T00:45:31.675Z,-2.20
2018-12-14T00:50:35.027Z,-2.20
2018-12-14T00:55:38.383Z,-2.20
2018-12-14T01:00:41.862Z,-2.20
2018-12-14T01:05:45.211Z,-2.20
2018-12-14T01:10:48.477Z,-2.10
2018-12-14T01:15:51.778Z,-2.20
2018-12-14T01:20:55.091Z,-2.10
2018-12-14T01:31:01.408Z,-2.20
2018-12-14T01:36:04.872Z,-2.30
2018-12-14T01:41:08.166Z,-2.20
2018-12-14T01:46:11.419Z,-2.10
2018-12-14T01:51:14.731Z,-2.10
2018-12-14T01:56:18.056Z,-2.00
2018-12-14T02:01:21.471Z,-1.90
2018-12-14T02:06:24.727Z,-1.90
2018-12-14T02:11:27.983Z,-2.10
2018-12-14T02:16:31.258Z,-2.00
2018-12-14T02:21:34.539Z,-2.00
2018-12-14T02:26:37.935Z,-2.00
2018-12-14T02:31:41.239Z,-2.00
2018-12-14T02:36:44.559Z,-2.00
2018-12-14T02:41:47.964Z,-2.00
2018-12-14T02:46:51.233Z,-2.00
2018-12-14T02:51:54.638Z,-2.00
2018-12-14T02:56:57.907Z,-1.90
2018-12-14T03:02:01.288Z,-1.90
2018-12-14T03:07:04.566Z,-2.00
2018-12-14T03:12:07.872Z,-2.00
2018-12-14T03:17:11.141Z,-2.00
2018-12-14T03:22:14.453Z,-2.00
2018-12-14T03:27:17.771Z,-2.00
2018-12-14T03:32:21.132Z,-2.10
2018-12-14T03:37:24.510Z,-2.10
2018-12-14T03:42:34.116Z,-2.20
2018-12-14T03:47:31.193Z,-2.20
2018-12-14T03:52:34.524Z,-2.20
2018-12-14T03:57:37.853Z,-2.20
2018-12-14T04:02:41.229Z,-2.30
2018-12-14T04:07:44.582Z,-2.40
2018-12-14T04:12:48.126Z,-2.40
2018-12-14T04:17:51.635Z,-2.50
2018-12-14T04:22:55.093Z,-2.40
2018-12-14T04:27:58.369Z,-2.30
2018-12-14T04:33:01.640Z,-2.30
2018-12-14T04:38:04.915Z,-2.40
2018-12-14T04:43:08.205Z,-2.40
2018-12-14T04:48:11.549Z,-2.40
2018-12-14T04:53:14.811Z,-2.40
2018-12-14T04:58:18.117Z,-2.50
2018-12-14T05:03:21.396Z,-2.60
2018-12-14T05:08:24.659Z,-2.60
2018-12-14T05:13:27.997Z,-2.50
2018-12-14T05:18:31.265Z,-2.60
2018-12-14T05:23:34.610Z,-2.60
2018-12-14T05:28:37.888Z,-2.70
2018-12-14T05:33:41.229Z,-2.80
2018-12-14T05:38:44.500Z,-2.80
2018-12-14T05:43:47.770Z,-2.80
2018-12-14T05:48:51.180Z,-2.80
2018-12-14T05:53:54.467Z,-2.80
2018-12-14T05:58:57.768Z,-2.80
2018-12-14T06:04:01.048Z,-2.80
2018-12-14T06:09:07.632Z,-2.70
2018-12-14T06:14:11.440Z,-2.80
2018-12-14T06:19:15.688Z,-2.80
2018-12-14T06:24:19.517Z,-2.70
2018-12-14T06:29:23.424Z,-2.70
2018-12-14T06:34:27.698Z,-2.80
2018-12-14T06:39:30.991Z,-2.80
2018-12-14T06:44:34.366Z,-2.70
2018-12-14T06:49:37.621Z,-2.80
2018-12-14T06:54:40.982Z,-2.80
2018-12-14T06:59:44.283Z,-2.90
2018-12-14T07:04:47.787Z,-2.90
2018-12-14T07:09:51.198Z,-3.10
2018-12-14T07:14:54.528Z,-3.00
2018-12-14T07:19:57.935Z,-2.90
2018-12-14T07:25:01.398Z,-2.90
2018-12-14T07:30:05.258Z,-3.00
2018-12-14T07:35:08.695Z,-2.90
2018-12-14T07:40:12.103Z,-3.00
2018-12-14T07:45:15.473Z,-2.90
2018-12-14T07:50:18.889Z,-2.80
2018-12-14T07:55:22.378Z,-2.80
2018-12-14T08:00:25.751Z,-2.70
2018-12-14T08:05:29.022Z,-2.60
2018-12-14T08:10:32.374Z,-2.50
2018-12-14T08:15:35.682Z,-2.40
2018-12-14T08:20:39.055Z,-2.30
2018-12-14T08:25:42.340Z,-2.10
2018-12-14T08:30:45.620Z,-2.10
2018-12-14T08:35:48.939Z,-1.90
2018-12-14T08:40:52.312Z,-1.80
2018-12-14T08:45:55.669Z,-1.70
2018-12-14T08:50:58.931Z,-1.50
2018-12-14T08:56:02.214Z,-1.30
2018-12-14T09:01:05.569Z,-1.20
2018-12-14T09:06:08.932Z,-1.10
2018-12-14T09:11:12.286Z,-0.90
2018-12-14T09:16:15.562Z,-0.80
2018-12-14T09:21:18.873Z,-0.70
2018-12-14T09:26:22.258Z,-0.50
2018-12-14T09:31:25.552Z,-0.40
2018-12-14T09:36:28.977Z,-0.20
2018-12-14T09:41:32.397Z,-0.10
2018-12-14T09:46:37.277Z,0.00
2018-12-14T09:51:39.267Z,0.20
2018-12-14T09:56:42.563Z,0.30
2018-12-14T10:01:45.962Z,0.40
2018-12-14T10:06:49.286Z,0.50
2018-12-14T10:11:55.212Z,0.60
2018-12-14T10:16:56.116Z,0.90
2018-12-14T10:22:00.567Z,1.10
2018-12-14T10:27:03.837Z,1.30
2018-12-14T10:32:07.275Z,1.40
2018-12-14T10:37:10.755Z,1.20
2018-12-14T10:42:14.181Z,1.00
2018-12-14T10:47:17.709Z,0.80
2018-12-14T10:52:21.042Z,1.20
2018-12-14T10:57:24.421Z,1.60
2018-12-14T11:02:27.744Z,1.90
2018-12-14T11:07:31.030Z,1.50
2018-12-14T11:12:34.407Z,1.50
2018-12-14T11:17:37.675Z,1.40
2018-12-14T11:22:40.963Z,1.30
2018-12-14T11:27:44.352Z,1.10
2018-12-14T11:32:47.629Z,1.10
2018-12-14T11:37:50.978Z,1.10
2018-12-14T11:42:54.435Z,0.90
2018-12-14T11:47:57.944Z,1.20
2018-12-14T11:53:01.254Z,1.90
2018-12-14T11:58:04.648Z,2.00
2018-12-14T12:03:07.923Z,1.90
2018-12-14T12:08:12.751Z,1.60
2018-12-14T12:13:16.079Z,1.30
2018-12-14T12:18:19.555Z,0.90
2018-12-14T12:23:23.014Z,1.00
2018-12-14T12:28:26.585Z,0.70
2018-12-14T12:33:29.980Z,0.60
2018-12-14T12:38:38.101Z,0.60
2018-12-14T12:43:36.558Z,0.60
2018-12-14T12:53:44.042Z,0.40
2018-12-14T12:58:47.371Z,0.60
2018-12-14T13:03:50.634Z,0.70
2018-12-14T13:08:53.960Z,0.70
2018-12-14T13:13:57.330Z,0.60
2018-12-14T13:24:03.963Z,0.60
2018-12-14T13:29:07.260Z,0.50
2018-12-14T13:34:10.758Z,0.50
2018-12-14T13:39:14.100Z,0.40
2018-12-14T13:44:17.556Z,0.30
2018-12-14T13:49:21.062Z,0.40
2018-12-14T13:54:24.387Z,0.30
2018-12-14T13:59:28.846Z,0.30
2018-12-14T14:04:32.341Z,0.30
2018-12-14T14:14:38.956Z,0.30
2018-12-14T14:19:42.356Z,0.30
2018-12-14T14:24:45.803Z,0.20
2018-12-14T14:34:52.281Z,0.10
2018-12-14T14:39:55.671Z,0.10
2018-12-14T14:44:59.955Z,0.10
2018-12-14T14:50:02.559Z,0.10
2018-12-14T14:55:06.075Z,0.10
2018-12-14T15:00:09.446Z,0.00
2018-12-14T15:05:12.844Z,0.00
2018-12-14T15:10:16.290Z,0.00
2018-12-14T15:15:19.631Z,-0.10
2018-12-14T15:20:22.993Z,0.00
2018-12-14T15:25:26.380Z,-0.10
2018-12-14T15:30:29.766Z,0.00
2018-12-14T15:35:33.189Z,-0.10
2018-12-14T15:40:36.556Z,-0.10
2018-12-14T15:45:39.983Z,-0.20
2018-12-14T15:50:43.402Z,-0.20
2018-12-14T15:55:46.914Z,-0.20
2018-12-14T16:00:50.331Z,-0.20
2018-12-14T16:05:54.775Z,-0.20
2018-12-14T16:10:58.154Z,-0.20
2018-12-14T16:16:01.617Z,-0.30
2018-12-14T16:21:05.077Z,-0.30
2018-12-14T16:26:08.713Z,-0.30
2018-12-14T16:31:12.538Z,-0.30
2018-12-14T16:36:15.994Z,-0.40
2018-12-14T16:41:19.563Z,-0.30
2018-12-14T16:46:23.020Z,-0.40
2018-12-14T16:51:26.610Z,-0.40
2018-12-14T16:56:30.054Z,-0.30
2018-12-14T17:01:33.449Z,-0.40
2018-12-14T17:06:36.977Z,-0.40
2018-12-14T17:11:40.435Z,-0.40
2018-12-14T17:16:43.908Z,-0.40
2018-12-14T17:21:47.396Z,-0.40
2018-12-14T17:26:50.958Z,-0.40
2018-12-14T17:31:54.362Z,-0.40
2018-12-14T17:36:57.763Z,-0.40
2018-12-14T17:42:01.205Z,-0.50
2018-12-14T17:47:04.588Z,-0.50
2018-12-14T17:52:08.276Z,-0.40
2018-12-14T17:57:11.695Z,-0.40
2018-12-14T18:02:15.259Z,-0.40
2018-12-14T18:07:18.639Z,-0.40
2018-12-14T18:12:22.088Z,-0.50
2018-12-14T18:17:25.637Z,-0.50
2018-12-14T18:22:29.161Z,-0.40
2018-12-14T18:27:32.554Z,-0.50
2018-12-14T18:32:36.050Z,-0.50
2018-12-14T18:37:39.538Z,-0.40
2018-12-14T18:42:43.075Z,-0.40
2018-12-14T18:47:46.491Z,-0.40
2018-12-14T18:52:49.882Z,-0.50
2018-12-14T18:57:53.306Z,-0.50
2018-12-14T19:02:56.694Z,-0.50
2018-12-14T19:08:00.106Z,-0.50
2018-12-14T19:13:03.619Z,-0.50
2018-12-14T19:18:07.019Z,-0.60
2018-12-14T19:23:10.479Z,-0.60
2018-12-14T19:28:13.951Z,-0.60
2018-12-14T19:33:17.405Z,-0.60
2018-12-14T19:38:20.970Z,-0.60
2018-12-14T19:43:24.461Z,-0.60
2018-12-14T19:48:27.844Z,-0.60
2018-12-14T19:53:31.256Z,-0.70
2018-12-14T19:58:34.663Z,-0.70
2018-12-14T20:03:38.082Z,-0.70
2018-12-14T20:08:41.484Z,-0.60
2018-12-14T20:13:44.873Z,-0.70
2018-12-14T20:18:48.260Z,-0.70
2018-12-14T20:23:51.701Z,-0.70
2018-12-14T20:28:55.222Z,-0.70
2018-12-14T20:33:58.611Z,-0.70
2018-12-14T20:39:02.098Z,-0.70
2018-12-14T20:44:05.493Z,-0.70
2018-12-14T20:49:09.039Z,-0.60
2018-12-14T20:54:12.536Z,-0.70
2018-12-14T20:59:16.082Z,-0.70
2018-12-14T21:04:19.595Z,-0.70
2018-12-14T21:09:23.102Z,-0.70
2018-12-14T21:14:26.552Z,-0.70
2018-12-14T21:19:30.124Z,-0.70
2018-12-14T21:24:33.619Z,-0.70
2018-12-14T21:29:36.992Z,-0.70
2018-12-14T21:34:40.379Z,-0.70
2018-12-14T21:39:43.787Z,-0.70
2018-12-14T21:44:47.160Z,-0.70
2018-12-14T21:49:50.569Z,-0.70
2018-12-14T21:54:53.991Z,-0.60
2018-12-14T21:59:57.513Z,-0.70
2018-12-14T22:05:00.932Z,-0.70
2018-12-14T22:10:04.791Z,-0.70
2018-12-14T22:15:08.408Z,-0.70
2018-12-14T22:20:13.064Z,-0.70
2018-12-14T22:25:17.413Z,-0.70
2018-12-14T22:30:20.989Z,-0.70
2018-12-14T22:35:24.398Z,-0.70
2018-12-14T22:40:28.238Z,-0.80
2018-12-14T22:45:31.736Z,-0.80
2018-12-14T22:50:35.547Z,-0.80
2018-12-14T22:55:39.547Z,-0.80
2018-12-14T23:00:52.611Z,-0.90
2018-12-14T23:05:56.522Z,-0.90
2018-12-14T23:11:00.085Z,-0.90
2018-12-14T23:16:03.731Z,-0.90
2018-12-14T23:21:07.144Z,-0.90
2018-12-14T23:26:10.452Z,-0.90
2018-12-14T23:36:17.035Z,-0.90
2018-12-14T23:41:20.327Z,-0.90
2018-12-14T23:46:23.755Z,-0.90
2018-12-14T23:51:27.066Z,-1.00
2018-12-14T23:56:30.414Z,-1.00
